sensor_id;sensor_type;location;lat;lon;timestamp;temperature;humidity
16249;DHT22;8232;51.678;6.610;2022-09-27T00:00:15;25.40;99.90
16249;DHT22;8232;51.678;6.610;2022-09-27T00:02:42;25.30;99.90
16249;DHT22;8232;51.678;6.610;2022-09-27T00:05:09;25.30;99.90
16249;DHT22;8232;51.678;6.610;2022-09-27T00:07:36;25.20;99.90
16249;DHT22;8232;51.678;6.610;2022-09-27T00:10:04;25.20;99.90
16249;DHT22;8232;51.678;6.610;2022-09-27T00:12:31;25.30;99.90
16249;DHT22;8232;51.678;6.610;2022-09-27T00:14:58;25.10;99.90
16249;DHT22;8232;51.678;6.610;2022-09-27T00:17:27;25.10;99.90
16249;DHT22;8232;51.678;6.610;2022-09-27T00:19:54;25.10;99.90
16249;DHT22;8232;51.678;6.610;2022-09-27T00:22:21;25.10;99.90
16249;DHT22;8232;51.678;6.610;2022-09-27T00:24:49;25.20;99.90
16249;DHT22;8232;51.678;6.610;2022-09-27T00:27:16;25.10;99.90
16249;DHT22;8232;51.678;6.610;2022-09-27T00:29:43;25.10;99.90
16249;DHT22;8232;51.678;6.610;2022-09-27T00:32:10;25.10;99.90
16249;DHT22;8232;51.678;6.610;2022-09-27T00:34:39;25.00;99.90
16249;DHT22;8232;51.678;6.610;2022-09-27T00:37:07;25.00;99.90
16249;DHT22;8232;51.678;6.610;2022-09-27T00:39:34;24.90;99.90
16249;DHT22;8232;51.678;6.610;2022-09-27T00:42:02;25.00;99.90
16249;DHT22;8232;51.678;6.610;2022-09-27T00:45:00;25.30;99.90
16249;DHT22;8232;51.678;6.610;2022-09-27T00:47:32;25.30;99.90
16249;DHT22;8232;51.678;6.610;2022-09-27T00:50:06;25.40;99.90
16249;DHT22;8232;51.678;6.610;2022-09-27T00:52:39;25.30;99.90
16249;DHT22;8232;51.678;6.610;2022-09-27T00:55:10;25.40;99.90
16249;DHT22;8232;51.678;6.610;2022-09-27T00:57:38;25.40;99.90
16249;DHT22;8232;51.678;6.610;2022-09-27T01:00:08;25.40;99.90
16249;DHT22;8232;51.678;6.610;2022-09-27T01:02:36;25.30;99.90
16249;DHT22;8232;51.678;6.610;2022-09-27T01:05:07;25.30;99.90
16249;DHT22;8232;51.678;6.610;2022-09-27T01:07:35;25.10;99.90
16249;DHT22;8232;51.678;6.610;2022-09-27T01:10:03;25.00;99.90
16249;DHT22;8232;51.678;6.610;2022-09-27T01:12:40;24.90;99.90
16249;DHT22;8232;51.678;6.610;2022-09-27T01:15:13;24.80;99.90
16249;DHT22;8232;51.678;6.610;2022-09-27T01:17:52;24.80;99.90
16249;DHT22;8232;51.678;6.610;2022-09-27T01:20:44;24.60;99.90
16249;DHT22;8232;51.678;6.610;2022-09-27T01:23:47;24.50;99.90
16249;DHT22;8232;51.678;6.610;2022-09-27T01:26:27;24.50;99.90
16249;DHT22;8232;51.678;6.610;2022-09-27T01:29:03;24.40;99.90
16249;DHT22;8232;51.678;6.610;2022-09-27T01:31:39;24.30;99.90
16249;DHT22;8232;51.678;6.610;2022-09-27T01:34:14;24.20;99.90
16249;DHT22;8232;51.678;6.610;2022-09-27T01:36:49;24.00;99.90
16249;DHT22;8232;51.678;6.610;2022-09-27T01:39:29;24.10;99.90
16249;DHT22;8232;51.678;6.610;2022-09-27T01:42:01;24.00;99.90
16249;DHT22;8232;51.678;6.610;2022-09-27T01:44:34;23.90;99.90
16249;DHT22;8232;51.678;6.610;2022-09-27T01:47:09;23.90;99.90
16249;DHT22;8232;51.678;6.610;2022-09-27T01:49:41;23.90;99.90
16249;DHT22;8232;51.678;6.610;2022-09-27T01:52:15;23.90;99.90
16249;DHT22;8232;51.678;6.610;2022-09-27T01:54:46;23.70;99.90
16249;DHT22;8232;51.678;6.610;2022-09-27T01:57:18;23.60;99.90
16249;DHT22;8232;51.678;6.610;2022-09-27T01:59:48;23.60;99.90
16249;DHT22;8232;51.678;6.610;2022-09-27T02:02:20;23.60;99.90
16249;DHT22;8232;51.678;6.610;2022-09-27T02:04:50;23.60;99.90
16249;DHT22;8232;51.678;6.610;2022-09-27T02:07:22;23.60;99.90
16249;DHT22;8232;51.678;6.610;2022-09-27T02:09:53;23.40;99.90
16249;DHT22;8232;51.678;6.610;2022-09-27T02:12:25;24.20;99.90
16249;DHT22;8232;51.678;6.610;2022-09-27T02:14:57;24.40;99.90
16249;DHT22;8232;51.678;6.610;2022-09-27T02:17:33;24.50;99.90
16249;DHT22;8232;51.678;6.610;2022-09-27T02:20:11;24.50;99.90
16249;DHT22;8232;51.678;6.610;2022-09-27T02:22:44;24.50;99.90
16249;DHT22;8232;51.678;6.610;2022-09-27T02:25:19;24.50;99.90
16249;DHT22;8232;51.678;6.610;2022-09-27T02:27:54;24.50;99.90
16249;DHT22;8232;51.678;6.610;2022-09-27T02:30:23;24.60;99.90
16249;DHT22;8232;51.678;6.610;2022-09-27T02:32:52;24.40;99.90
16249;DHT22;8232;51.678;6.610;2022-09-27T02:35:23;24.30;99.90
16249;DHT22;8232;51.678;6.610;2022-09-27T02:37:52;24.20;99.90
16249;DHT22;8232;51.678;6.610;2022-09-27T02:40:19;24.10;99.90
16249;DHT22;8232;51.678;6.610;2022-09-27T02:42:46;24.00;99.90
16249;DHT22;8232;51.678;6.610;2022-09-27T02:45:16;23.90;99.90
16249;DHT22;8232;51.678;6.610;2022-09-27T02:50:57;23.60;99.90
16249;DHT22;8232;51.678;6.610;2022-09-27T02:53:37;23.60;99.90
16249;DHT22;8232;51.678;6.610;2022-09-27T02:56:12;23.40;99.90
16249;DHT22;8232;51.678;6.610;2022-09-27T02:58:49;23.30;99.90
16249;DHT22;8232;51.678;6.610;2022-09-27T03:01:23;23.20;99.90
16249;DHT22;8232;51.678;6.610;2022-09-27T03:03:58;23.20;99.90
16249;DHT22;8232;51.678;6.610;2022-09-27T03:06:31;23.10;99.90
16249;DHT22;8232;51.678;6.610;2022-09-27T03:08:58;23.00;99.90
16249;DHT22;8232;51.678;6.610;2022-09-27T03:11:25;22.90;99.90
16249;DHT22;8232;51.678;6.610;2022-09-27T03:13:52;22.80;99.90
16249;DHT22;8232;51.678;6.610;2022-09-27T03:16:19;22.80;99.90
16249;DHT22;8232;51.678;6.610;2022-09-27T03:18:46;22.80;99.90
16249;DHT22;8232;51.678;6.610;2022-09-27T03:21:13;22.70;99.90
16249;DHT22;8232;51.678;6.610;2022-09-27T03:23:41;22.70;99.90
16249;DHT22;8232;51.678;6.610;2022-09-27T03:26:08;22.60;99.90
16249;DHT22;8232;51.678;6.610;2022-09-27T03:28:35;22.60;99.90
16249;DHT22;8232;51.678;6.610;2022-09-27T03:31:02;22.60;99.90
16249;DHT22;8232;51.678;6.610;2022-09-27T03:33:29;22.70;99.90
16249;DHT22;8232;51.678;6.610;2022-09-27T03:35:56;22.60;99.90
16249;DHT22;8232;51.678;6.610;2022-09-27T03:38:23;22.50;99.90
16249;DHT22;8232;51.678;6.610;2022-09-27T03:40:51;22.40;99.90
16249;DHT22;8232;51.678;6.610;2022-09-27T03:43:18;22.40;99.90
16249;DHT22;8232;51.678;6.610;2022-09-27T03:45:45;22.40;99.90
16249;DHT22;8232;51.678;6.610;2022-09-27T03:48:12;22.40;99.90
16249;DHT22;8232;51.678;6.610;2022-09-27T03:50:39;22.40;99.90
16249;DHT22;8232;51.678;6.610;2022-09-27T03:53:06;22.40;99.90
16249;DHT22;8232;51.678;6.610;2022-09-27T03:55:34;22.40;99.90
16249;DHT22;8232;51.678;6.610;2022-09-27T03:58:02;22.30;99.90
16249;DHT22;8232;51.678;6.610;2022-09-27T04:00:29;22.30;99.90
16249;DHT22;8232;51.678;6.610;2022-09-27T04:02:57;22.20;99.90
16249;DHT22;8232;51.678;6.610;2022-09-27T04:05:25;22.50;99.90
16249;DHT22;8232;51.678;6.610;2022-09-27T04:07:52;23.10;99.90
16249;DHT22;8232;51.678;6.610;2022-09-27T04:10:19;23.10;99.90
16249;DHT22;8232;51.678;6.610;2022-09-27T04:12:46;23.20;99.90
16249;DHT22;8232;51.678;6.610;2022-09-27T04:15:14;23.20;99.90
16249;DHT22;8232;51.678;6.610;2022-09-27T04:17:42;23.10;99.90
16249;DHT22;8232;51.678;6.610;2022-09-27T04:20:09;23.20;99.90
16249;DHT22;8232;51.678;6.610;2022-09-27T04:22:38;23.20;99.90
16249;DHT22;8232;51.678;6.610;2022-09-27T04:25:07;23.10;99.90
16249;DHT22;8232;51.678;6.610;2022-09-27T04:27:34;23.20;99.90
16249;DHT22;8232;51.678;6.610;2022-09-27T04:30:01;23.10;99.90
16249;DHT22;8232;51.678;6.610;2022-09-27T04:32:29;23.10;99.90
16249;DHT22;8232;51.678;6.610;2022-09-27T04:34:56;22.90;99.90
16249;DHT22;8232;51.678;6.610;2022-09-27T04:37:40;23.00;99.90
16249;DHT22;8232;51.678;6.610;2022-09-27T04:40:08;22.90;99.90
16249;DHT22;8232;51.678;6.610;2022-09-27T04:42:35;22.80;99.90
16249;DHT22;8232;51.678;6.610;2022-09-27T04:45:02;22.80;99.90
16249;DHT22;8232;51.678;6.610;2022-09-27T04:47:31;22.70;99.90
16249;DHT22;8232;51.678;6.610;2022-09-27T04:49:58;22.70;99.90
16249;DHT22;8232;51.678;6.610;2022-09-27T04:52:25;22.60;99.90
16249;DHT22;8232;51.678;6.610;2022-09-27T04:54:52;22.60;99.90
16249;DHT22;8232;51.678;6.610;2022-09-27T04:57:19;22.50;99.90
16249;DHT22;8232;51.678;6.610;2022-09-27T04:59:46;22.50;99.90
16249;DHT22;8232;51.678;6.610;2022-09-27T05:02:16;22.50;99.90
16249;DHT22;8232;51.678;6.610;2022-09-27T05:04:44;22.40;99.90
16249;DHT22;8232;51.678;6.610;2022-09-27T05:07:11;22.40;99.90
16249;DHT22;8232;51.678;6.610;2022-09-27T05:09:38;22.30;99.90
16249;DHT22;8232;51.678;6.610;2022-09-27T05:12:05;22.30;99.90
16249;DHT22;8232;51.678;6.610;2022-09-27T05:14:33;22.20;99.90
16249;DHT22;8232;51.678;6.610;2022-09-27T05:17:00;22.10;99.90
16249;DHT22;8232;51.678;6.610;2022-09-27T05:19:27;22.10;99.90
16249;DHT22;8232;51.678;6.610;2022-09-27T05:21:55;22.10;99.90
16249;DHT22;8232;51.678;6.610;2022-09-27T05:24:22;21.90;99.90
16249;DHT22;8232;51.678;6.610;2022-09-27T05:26:49;22.00;99.90
16249;DHT22;8232;51.678;6.610;2022-09-27T05:29:16;21.90;99.90
16249;DHT22;8232;51.678;6.610;2022-09-27T05:31:43;21.80;99.90
16249;DHT22;8232;51.678;6.610;2022-09-27T05:34:10;21.80;99.90
16249;DHT22;8232;51.678;6.610;2022-09-27T05:36:37;21.80;99.90
16249;DHT22;8232;51.678;6.610;2022-09-27T05:39:05;21.80;99.90
16249;DHT22;8232;51.678;6.610;2022-09-27T05:41:33;21.80;99.90
16249;DHT22;8232;51.678;6.610;2022-09-27T05:44:00;21.80;99.90
16249;DHT22;8232;51.678;6.610;2022-09-27T05:46:28;21.70;99.90
16249;DHT22;8232;51.678;6.610;2022-09-27T05:48:54;21.70;99.90
16249;DHT22;8232;51.678;6.610;2022-09-27T05:51:21;21.80;99.90
16249;DHT22;8232;51.678;6.610;2022-09-27T05:53:48;21.80;99.90
16249;DHT22;8232;51.678;6.610;2022-09-27T05:56:16;21.70;99.90
16249;DHT22;8232;51.678;6.610;2022-09-27T05:58:43;21.60;99.90
16249;DHT22;8232;51.678;6.610;2022-09-27T06:01:10;21.70;99.90
16249;DHT22;8232;51.678;6.610;2022-09-27T06:03:37;21.70;99.90
16249;DHT22;8232;51.678;6.610;2022-09-27T06:06:06;21.70;99.90
16249;DHT22;8232;51.678;6.610;2022-09-27T06:08:36;21.70;99.90
16249;DHT22;8232;51.678;6.610;2022-09-27T06:11:06;21.80;99.90
16249;DHT22;8232;51.678;6.610;2022-09-27T06:13:35;21.60;99.90
16249;DHT22;8232;51.678;6.610;2022-09-27T06:16:03;21.80;99.90
16249;DHT22;8232;51.678;6.610;2022-09-27T06:18:30;21.80;99.90
16249;DHT22;8232;51.678;6.610;2022-09-27T06:20:58;21.70;99.90
16249;DHT22;8232;51.678;6.610;2022-09-27T06:23:25;21.70;99.90
16249;DHT22;8232;51.678;6.610;2022-09-27T06:25:54;21.60;99.90
16249;DHT22;8232;51.678;6.610;2022-09-27T06:28:21;21.40;99.90
16249;DHT22;8232;51.678;6.610;2022-09-27T06:30:50;21.50;99.90
16249;DHT22;8232;51.678;6.610;2022-09-27T06:33:18;21.50;99.90
16249;DHT22;8232;51.678;6.610;2022-09-27T06:35:46;21.40;99.90
16249;DHT22;8232;51.678;6.610;2022-09-27T06:38:16;21.40;99.90
16249;DHT22;8232;51.678;6.610;2022-09-27T06:40:46;21.30;99.90
16249;DHT22;8232;51.678;6.610;2022-09-27T06:43:15;21.20;99.90
16249;DHT22;8232;51.678;6.610;2022-09-27T06:45:42;20.90;99.90
16249;DHT22;8232;51.678;6.610;2022-09-27T06:48:12;20.90;99.90
16249;DHT22;8232;51.678;6.610;2022-09-27T06:50:41;21.00;99.90
16249;DHT22;8232;51.678;6.610;2022-09-27T06:53:10;20.80;99.90
16249;DHT22;8232;51.678;6.610;2022-09-27T06:55:38;20.60;99.90
16249;DHT22;8232;51.678;6.610;2022-09-27T06:58:05;20.60;99.90
16249;DHT22;8232;51.678;6.610;2022-09-27T07:00:51;20.50;99.90
16249;DHT22;8232;51.678;6.610;2022-09-27T07:03:20;20.50;99.90
16249;DHT22;8232;51.678;6.610;2022-09-27T07:05:54;20.50;99.90
16249;DHT22;8232;51.678;6.610;2022-09-27T07:08:23;20.20;99.90
16249;DHT22;8232;51.678;6.610;2022-09-27T07:10:51;20.30;99.90
16249;DHT22;8232;51.678;6.610;2022-09-27T07:13:20;20.20;99.90
16249;DHT22;8232;51.678;6.610;2022-09-27T07:15:47;20.00;99.90
16249;DHT22;8232;51.678;6.610;2022-09-27T07:18:14;20.00;99.90
16249;DHT22;8232;51.678;6.610;2022-09-27T07:20:42;19.90;99.90
16249;DHT22;8232;51.678;6.610;2022-09-27T07:23:09;19.60;99.90
16249;DHT22;8232;51.678;6.610;2022-09-27T07:25:36;19.50;99.90
16249;DHT22;8232;51.678;6.610;2022-09-27T07:28:05;18.80;99.90
16249;DHT22;8232;51.678;6.610;2022-09-27T07:30:34;17.50;99.90
16249;DHT22;8232;51.678;6.610;2022-09-27T07:33:02;16.40;99.90
16249;DHT22;8232;51.678;6.610;2022-09-27T07:35:29;16.10;99.90
16249;DHT22;8232;51.678;6.610;2022-09-27T07:37:58;16.10;99.90
16249;DHT22;8232;51.678;6.610;2022-09-27T07:40:25;15.80;99.90
16249;DHT22;8232;51.678;6.610;2022-09-27T07:42:55;15.60;99.90
16249;DHT22;8232;51.678;6.610;2022-09-27T07:45:22;15.20;99.90
16249;DHT22;8232;51.678;6.610;2022-09-27T07:47:50;14.90;99.90
16249;DHT22;8232;51.678;6.610;2022-09-27T07:50:17;14.90;99.90
16249;DHT22;8232;51.678;6.610;2022-09-27T07:52:45;15.30;99.90
16249;DHT22;8232;51.678;6.610;2022-09-27T07:55:14;15.20;99.90
16249;DHT22;8232;51.678;6.610;2022-09-27T07:57:41;12.30;99.90
16249;DHT22;8232;51.678;6.610;2022-09-27T08:00:11;12.60;99.90
16249;DHT22;8232;51.678;6.610;2022-09-27T08:02:39;11.80;99.90
16249;DHT22;8232;51.678;6.610;2022-09-27T08:05:07;11.80;99.90
16249;DHT22;8232;51.678;6.610;2022-09-27T08:07:34;11.50;99.90
16249;DHT22;8232;51.678;6.610;2022-09-27T08:10:01;12.30;99.90
16249;DHT22;8232;51.678;6.610;2022-09-27T08:12:29;12.80;99.90
16249;DHT22;8232;51.678;6.610;2022-09-27T08:14:56;12.70;99.90
16249;DHT22;8232;51.678;6.610;2022-09-27T08:17:26;12.20;99.90
16249;DHT22;8232;51.678;6.610;2022-09-27T08:19:53;12.30;99.90
16249;DHT22;8232;51.678;6.610;2022-09-27T08:22:20;11.40;99.90
16249;DHT22;8232;51.678;6.610;2022-09-27T08:24:47;11.10;99.90
16249;DHT22;8232;51.678;6.610;2022-09-27T08:27:15;11.10;99.90
16249;DHT22;8232;51.678;6.610;2022-09-27T08:29:43;10.70;1.00
16249;DHT22;8232;51.678;6.610;2022-09-27T08:32:11;10.70;1.00
16249;DHT22;8232;51.678;6.610;2022-09-27T08:34:38;10.60;1.00
16249;DHT22;8232;51.678;6.610;2022-09-27T08:37:06;10.60;99.90
16249;DHT22;8232;51.678;6.610;2022-09-27T08:39:32;10.60;1.00
16249;DHT22;8232;51.678;6.610;2022-09-27T08:42:05;10.70;1.00
16249;DHT22;8232;51.678;6.610;2022-09-27T08:44:43;10.60;1.00
16249;DHT22;8232;51.678;6.610;2022-09-27T08:47:15;10.70;1.00
16249;DHT22;8232;51.678;6.610;2022-09-27T08:49:47;10.70;1.00
16249;DHT22;8232;51.678;6.610;2022-09-27T08:52:18;10.90;1.00
16249;DHT22;8232;51.678;6.610;2022-09-27T08:54:47;10.90;1.00
16249;DHT22;8232;51.678;6.610;2022-09-27T08:57:14;10.60;1.00
16249;DHT22;8232;51.678;6.610;2022-09-27T08:59:47;10.60;1.00
16249;DHT22;8232;51.678;6.610;2022-09-27T09:02:18;10.50;1.00
16249;DHT22;8232;51.678;6.610;2022-09-27T09:04:48;10.70;1.00
16249;DHT22;8232;51.678;6.610;2022-09-27T09:07:30;10.80;1.00
16249;DHT22;8232;51.678;6.610;2022-09-27T09:10:10;10.70;1.00
16249;DHT22;8232;51.678;6.610;2022-09-27T09:12:46;10.90;1.00
16249;DHT22;8232;51.678;6.610;2022-09-27T09:15:30;11.00;1.00
16249;DHT22;8232;51.678;6.610;2022-09-27T09:18:28;11.10;1.00
16249;DHT22;8232;51.678;6.610;2022-09-27T09:21:05;11.20;1.00
16249;DHT22;8232;51.678;6.610;2022-09-27T09:23:46;11.20;1.00
16249;DHT22;8232;51.678;6.610;2022-09-27T09:26:21;10.70;1.00
16249;DHT22;8232;51.678;6.610;2022-09-27T09:29:03;10.80;1.00
16249;DHT22;8232;51.678;6.610;2022-09-27T09:31:40;10.50;1.00
16249;DHT22;8232;51.678;6.610;2022-09-27T09:34:14;10.60;1.00
16249;DHT22;8232;51.678;6.610;2022-09-27T09:36:45;10.80;1.00
16249;DHT22;8232;51.678;6.610;2022-09-27T09:39:16;10.80;1.00
16249;DHT22;8232;51.678;6.610;2022-09-27T09:41:54;10.80;1.00
16249;DHT22;8232;51.678;6.610;2022-09-27T09:44:26;10.80;1.00
16249;DHT22;8232;51.678;6.610;2022-09-27T09:46:57;11.00;1.00
16249;DHT22;8232;51.678;6.610;2022-09-27T09:49:27;11.00;1.00
16249;DHT22;8232;51.678;6.610;2022-09-27T09:51:58;11.00;1.00
16249;DHT22;8232;51.678;6.610;2022-09-27T09:54:29;11.00;1.00
16249;DHT22;8232;51.678;6.610;2022-09-27T09:57:01;11.30;1.00
16249;DHT22;8232;51.678;6.610;2022-09-27T09:59:33;11.60;99.90
16249;DHT22;8232;51.678;6.610;2022-09-27T10:02:22;11.70;99.90
16249;DHT22;8232;51.678;6.610;2022-09-27T10:04:51;11.50;99.90
16249;DHT22;8232;51.678;6.610;2022-09-27T10:07:20;11.50;99.90
16249;DHT22;8232;51.678;6.610;2022-09-27T10:09:48;11.30;99.90
16249;DHT22;8232;51.678;6.610;2022-09-27T10:12:15;11.40;99.90
16249;DHT22;8232;51.678;6.610;2022-09-27T10:14:45;11.80;99.90
16249;DHT22;8232;51.678;6.610;2022-09-27T10:17:17;11.70;99.90
16249;DHT22;8232;51.678;6.610;2022-09-27T10:19:46;11.50;99.90
16249;DHT22;8232;51.678;6.610;2022-09-27T10:22:20;11.60;99.90
16249;DHT22;8232;51.678;6.610;2022-09-27T10:24:56;12.30;99.90
16249;DHT22;8232;51.678;6.610;2022-09-27T10:27:24;12.20;99.90
16249;DHT22;8232;51.678;6.610;2022-09-27T10:29:56;11.70;99.90
16249;DHT22;8232;51.678;6.610;2022-09-27T10:32:27;11.70;99.90
16249;DHT22;8232;51.678;6.610;2022-09-27T10:35:18;11.50;99.90
16249;DHT22;8232;51.678;6.610;2022-09-27T10:37:46;10.80;99.90
16249;DHT22;8232;51.678;6.610;2022-09-27T10:40:25;10.60;99.90
16249;DHT22;8232;51.678;6.610;2022-09-27T10:42:52;10.50;1.00
16249;DHT22;8232;51.678;6.610;2022-09-27T10:45:27;10.70;99.90
16249;DHT22;8232;51.678;6.610;2022-09-27T10:47:56;10.70;1.00
16249;DHT22;8232;51.678;6.610;2022-09-27T10:50:26;10.80;1.00
16249;DHT22;8232;51.678;6.610;2022-09-27T10:53:01;10.90;1.00
16249;DHT22;8232;51.678;6.610;2022-09-27T10:55:32;11.00;1.00
16249;DHT22;8232;51.678;6.610;2022-09-27T10:58:00;11.00;1.00
16249;DHT22;8232;51.678;6.610;2022-09-27T11:00:29;11.00;1.00
16249;DHT22;8232;51.678;6.610;2022-09-27T11:03:00;10.90;91.20
16249;DHT22;8232;51.678;6.610;2022-09-27T11:05:35;10.80;1.00
16249;DHT22;8232;51.678;6.610;2022-09-27T11:08:23;11.10;1.00
16249;DHT22;8232;51.678;6.610;2022-09-27T11:11:17;10.90;1.00
16249;DHT22;8232;51.678;6.610;2022-09-27T11:13:59;10.70;68.90
16249;DHT22;8232;51.678;6.610;2022-09-27T11:16:45;10.70;99.90
16249;DHT22;8232;51.678;6.610;2022-09-27T11:19:44;10.80;1.00
16249;DHT22;8232;51.678;6.610;2022-09-27T11:22:25;10.80;99.90
16249;DHT22;8232;51.678;6.610;2022-09-27T11:25:05;11.10;1.00
16249;DHT22;8232;51.678;6.610;2022-09-27T11:27:54;10.80;99.90
16249;DHT22;8232;51.678;6.610;2022-09-27T11:30:30;10.90;99.90
16249;DHT22;8232;51.678;6.610;2022-09-27T11:33:24;11.00;69.90
16249;DHT22;8232;51.678;6.610;2022-09-27T11:36:03;10.90;1.00
16249;DHT22;8232;51.678;6.610;2022-09-27T11:38:38;10.80;1.00
16249;DHT22;8232;51.678;6.610;2022-09-27T11:41:24;10.80;1.00
16249;DHT22;8232;51.678;6.610;2022-09-27T11:44:18;11.00;1.00
16249;DHT22;8232;51.678;6.610;2022-09-27T11:46:53;11.10;1.00
16249;DHT22;8232;51.678;6.610;2022-09-27T11:52:32;11.20;1.00
16249;DHT22;8232;51.678;6.610;2022-09-27T11:55:10;11.20;1.00
16249;DHT22;8232;51.678;6.610;2022-09-27T11:57:43;11.30;1.00
16249;DHT22;8232;51.678;6.610;2022-09-27T12:00:19;11.40;1.00
16249;DHT22;8232;51.678;6.610;2022-09-27T12:03:07;11.30;99.90
16249;DHT22;8232;51.678;6.610;2022-09-27T12:05:46;11.40;1.00
16249;DHT22;8232;51.678;6.610;2022-09-27T12:08:32;11.30;1.00
16249;DHT22;8232;51.678;6.610;2022-09-27T12:11:04;11.20;99.90
16249;DHT22;8232;51.678;6.610;2022-09-27T12:13:39;11.30;99.90
16249;DHT22;8232;51.678;6.610;2022-09-27T12:16:07;11.50;99.90
16249;DHT22;8232;51.678;6.610;2022-09-27T12:18:37;11.50;99.90
16249;DHT22;8232;51.678;6.610;2022-09-27T12:21:05;12.00;99.90
16249;DHT22;8232;51.678;6.610;2022-09-27T12:23:38;12.30;99.90
16249;DHT22;8232;51.678;6.610;2022-09-27T12:26:09;12.20;99.90
16249;DHT22;8232;51.678;6.610;2022-09-27T12:28:42;12.30;99.90
16249;DHT22;8232;51.678;6.610;2022-09-27T12:31:17;12.60;99.90
16249;DHT22;8232;51.678;6.610;2022-09-27T12:33:52;12.30;99.90
16249;DHT22;8232;51.678;6.610;2022-09-27T12:36:23;12.10;99.90
16249;DHT22;8232;51.678;6.610;2022-09-27T12:38:57;12.30;99.90
16249;DHT22;8232;51.678;6.610;2022-09-27T12:41:30;12.70;99.90
16249;DHT22;8232;51.678;6.610;2022-09-27T12:44:00;13.10;99.90
16249;DHT22;8232;51.678;6.610;2022-09-27T12:46:36;12.60;99.90
16249;DHT22;8232;51.678;6.610;2022-09-27T12:49:12;12.80;99.90
16249;DHT22;8232;51.678;6.610;2022-09-27T12:51:45;12.80;99.90
16249;DHT22;8232;51.678;6.610;2022-09-27T12:54:39;12.90;99.90
16249;DHT22;8232;51.678;6.610;2022-09-27T12:57:16;12.20;99.90
16249;DHT22;8232;51.678;6.610;2022-09-27T12:59:55;12.10;99.90
16249;DHT22;8232;51.678;6.610;2022-09-27T13:02:40;12.40;99.90
16249;DHT22;8232;51.678;6.610;2022-09-27T13:05:35;12.50;99.90
16249;DHT22;8232;51.678;6.610;2022-09-27T13:08:21;12.40;99.90
16249;DHT22;8232;51.678;6.610;2022-09-27T13:10:59;12.40;99.90
16249;DHT22;8232;51.678;6.610;2022-09-27T13:13:33;12.10;99.90
16249;DHT22;8232;51.678;6.610;2022-09-27T13:16:02;11.70;99.90
16249;DHT22;8232;51.678;6.610;2022-09-27T13:18:48;11.50;99.90
16249;DHT22;8232;51.678;6.610;2022-09-27T13:24:47;11.90;99.90
16249;DHT22;8232;51.678;6.610;2022-09-27T13:27:37;12.10;99.90
16249;DHT22;8232;51.678;6.610;2022-09-27T13:33:28;11.70;99.90
16249;DHT22;8232;51.678;6.610;2022-09-27T13:36:25;12.10;99.90
16249;DHT22;8232;51.678;6.610;2022-09-27T13:39:04;12.00;99.90
16249;DHT22;8232;51.678;6.610;2022-09-27T13:44:31;12.70;99.90
16249;DHT22;8232;51.678;6.610;2022-09-27T13:47:11;12.60;99.90
16249;DHT22;8232;51.678;6.610;2022-09-27T13:49:41;12.60;99.90
16249;DHT22;8232;51.678;6.610;2022-09-27T13:52:18;12.50;99.90
16249;DHT22;8232;51.678;6.610;2022-09-27T13:54:51;12.20;99.90
16249;DHT22;8232;51.678;6.610;2022-09-27T13:57:50;12.30;99.90
16249;DHT22;8232;51.678;6.610;2022-09-27T14:00:21;12.40;99.90
16249;DHT22;8232;51.678;6.610;2022-09-27T14:02:59;12.60;99.90
16249;DHT22;8232;51.678;6.610;2022-09-27T14:05:39;12.20;99.90
16249;DHT22;8232;51.678;6.610;2022-09-27T14:08:16;12.20;99.90
16249;DHT22;8232;51.678;6.610;2022-09-27T14:10:44;12.40;99.90
16249;DHT22;8232;51.678;6.610;2022-09-27T14:13:17;12.40;99.90
16249;DHT22;8232;51.678;6.610;2022-09-27T14:15:47;12.20;99.90
16249;DHT22;8232;51.678;6.610;2022-09-27T14:18:14;12.60;99.90
16249;DHT22;8232;51.678;6.610;2022-09-27T14:20:44;12.40;99.90
16249;DHT22;8232;51.678;6.610;2022-09-27T14:23:15;12.40;99.90
16249;DHT22;8232;51.678;6.610;2022-09-27T14:25:44;12.50;99.90
16249;DHT22;8232;51.678;6.610;2022-09-27T14:28:20;12.40;99.90
16249;DHT22;8232;51.678;6.610;2022-09-27T14:31:04;12.30;99.90
16249;DHT22;8232;51.678;6.610;2022-09-27T14:33:33;12.20;99.90
16249;DHT22;8232;51.678;6.610;2022-09-27T14:36:00;12.10;99.90
16249;DHT22;8232;51.678;6.610;2022-09-27T14:38:45;11.90;99.90
16249;DHT22;8232;51.678;6.610;2022-09-27T14:41:13;12.10;99.90
16249;DHT22;8232;51.678;6.610;2022-09-27T14:43:42;12.00;99.90
16249;DHT22;8232;51.678;6.610;2022-09-27T14:46:23;12.10;99.90
16249;DHT22;8232;51.678;6.610;2022-09-27T14:48:51;11.90;99.90
16249;DHT22;8232;51.678;6.610;2022-09-27T14:51:20;11.90;99.90
16249;DHT22;8232;51.678;6.610;2022-09-27T14:53:49;11.90;99.90
16249;DHT22;8232;51.678;6.610;2022-09-27T14:56:20;11.90;99.90
16249;DHT22;8232;51.678;6.610;2022-09-27T14:58:49;11.90;99.90
16249;DHT22;8232;51.678;6.610;2022-09-27T15:01:19;12.20;99.90
16249;DHT22;8232;51.678;6.610;2022-09-27T15:03:46;12.30;99.90
16249;DHT22;8232;51.678;6.610;2022-09-27T15:06:14;12.20;99.90
16249;DHT22;8232;51.678;6.610;2022-09-27T15:08:42;12.10;99.90
16249;DHT22;8232;51.678;6.610;2022-09-27T15:11:13;12.20;99.90
16249;DHT22;8232;51.678;6.610;2022-09-27T15:13:42;11.80;99.90
16249;DHT22;8232;51.678;6.610;2022-09-27T15:16:15;11.70;99.90
16249;DHT22;8232;51.678;6.610;2022-09-27T15:18:46;11.80;99.90
16249;DHT22;8232;51.678;6.610;2022-09-27T15:21:28;11.70;99.90
16249;DHT22;8232;51.678;6.610;2022-09-27T15:23:55;11.70;99.90
16249;DHT22;8232;51.678;6.610;2022-09-27T15:26:26;11.60;99.90
16249;DHT22;8232;51.678;6.610;2022-09-27T15:29:00;11.60;99.90
16249;DHT22;8232;51.678;6.610;2022-09-27T15:31:31;11.40;99.90
16249;DHT22;8232;51.678;6.610;2022-09-27T15:34:01;11.60;99.90
16249;DHT22;8232;51.678;6.610;2022-09-27T15:36:52;11.40;99.90
16249;DHT22;8232;51.678;6.610;2022-09-27T15:39:24;11.50;99.90
16249;DHT22;8232;51.678;6.610;2022-09-27T15:42:06;11.40;99.90
16249;DHT22;8232;51.678;6.610;2022-09-27T15:44:52;11.20;99.90
16249;DHT22;8232;51.678;6.610;2022-09-27T15:47:47;11.20;99.90
16249;DHT22;8232;51.678;6.610;2022-09-27T15:50:33;11.10;99.90
16249;DHT22;8232;51.678;6.610;2022-09-27T15:53:00;11.10;99.90
16249;DHT22;8232;51.678;6.610;2022-09-27T15:55:29;11.10;99.90
16249;DHT22;8232;51.678;6.610;2022-09-27T15:57:59;11.30;99.90
16249;DHT22;8232;51.678;6.610;2022-09-27T16:00:28;11.40;99.90
16249;DHT22;8232;51.678;6.610;2022-09-27T16:02:55;11.30;99.90
16249;DHT22;8232;51.678;6.610;2022-09-27T16:05:22;11.40;99.90
16249;DHT22;8232;51.678;6.610;2022-09-27T16:07:50;11.30;99.90
16249;DHT22;8232;51.678;6.610;2022-09-27T16:10:18;11.30;99.90
16249;DHT22;8232;51.678;6.610;2022-09-27T16:12:46;11.30;99.90
16249;DHT22;8232;51.678;6.610;2022-09-27T16:15:14;11.20;99.90
16249;DHT22;8232;51.678;6.610;2022-09-27T16:17:41;11.30;99.90
16249;DHT22;8232;51.678;6.610;2022-09-27T16:20:16;11.20;99.90
16249;DHT22;8232;51.678;6.610;2022-09-27T16:22:43;11.20;99.90
16249;DHT22;8232;51.678;6.610;2022-09-27T16:25:11;11.20;99.90
16249;DHT22;8232;51.678;6.610;2022-09-27T16:27:38;11.10;99.90
16249;DHT22;8232;51.678;6.610;2022-09-27T16:30:06;11.10;99.90
16249;DHT22;8232;51.678;6.610;2022-09-27T16:32:33;11.10;99.90